createdAt,value
2019-04-11T02:01:34.904Z,1009.47
2019-04-11T02:02:34.781Z,1009.49
2019-04-11T02:04:27.918Z,1009.51
2019-04-11T02:05:27.519Z,1009.52
2019-04-11T02:07:20.628Z,1009.55
2019-04-11T02:08:20.433Z,1009.54
2019-04-11T02:10:13.370Z,1009.58
2019-04-11T02:11:13.359Z,1009.57
2019-04-11T02:13:06.269Z,1009.59
2019-04-11T02:14:12.446Z,1009.59
2019-04-11T02:16:00.356Z,1009.58
2019-04-11T02:16:59.360Z,1009.59
2019-04-11T02:18:52.125Z,1009.60
2019-04-11T02:19:52.374Z,1009.60
2019-04-11T02:21:46.160Z,1009.66
2019-04-11T02:22:45.067Z,1009.65
2019-04-11T02:24:37.982Z,1009.65
2019-04-11T02:25:38.701Z,1009.67
2019-04-11T02:27:30.915Z,1009.59
2019-04-11T02:28:30.991Z,1009.62
2019-04-11T02:30:25.399Z,1009.63
2019-04-11T02:31:23.866Z,1009.61
2019-04-11T02:33:18.358Z,1009.57
2019-04-11T02:34:16.862Z,1009.58
2019-04-11T02:36:11.702Z,1009.58
2019-04-11T02:37:09.779Z,1009.57
2019-04-11T02:39:07.984Z,1009.58
2019-04-11T02:40:03.232Z,1009.59
2019-04-11T02:41:56.937Z,1009.55
2019-04-11T02:42:57.165Z,1009.56
2019-04-11T02:45:03.537Z,1009.57
2019-04-11T02:45:58.244Z,1009.53
2019-04-11T02:47:45.736Z,1009.53
2019-04-11T02:48:42.694Z,1009.52
2019-04-11T02:50:36.322Z,1009.47
2019-04-11T02:51:34.630Z,1009.45
2019-04-11T02:53:28.650Z,1009.40
2019-04-11T02:54:28.383Z,1009.39
2019-04-11T02:56:21.275Z,1009.35
2019-04-11T02:57:21.620Z,1009.32
2019-04-11T02:59:14.102Z,1009.35
2019-04-11T03:00:13.289Z,1009.32
2019-04-11T03:02:07.108Z,1009.30
2019-04-11T03:03:07.949Z,1009.24
2019-04-11T03:05:00.444Z,1009.22
2019-04-11T03:05:59.999Z,1009.17
2019-04-11T03:07:52.010Z,1009.17
2019-04-11T03:08:53.056Z,1009.15
2019-04-11T03:10:45.982Z,1009.12
2019-04-11T03:11:45.179Z,1009.08
2019-04-11T03:13:38.488Z,1009.08
2019-04-11T03:14:51.877Z,1009.06
2019-04-11T03:16:42.742Z,1008.97
2019-04-11T03:17:35.919Z,1008.93
2019-04-11T03:19:37.572Z,1008.92
2019-04-11T03:20:31.314Z,1008.89
2019-04-11T03:22:18.222Z,1008.85
2019-04-11T03:23:20.472Z,1008.86
2019-04-11T03:25:09.636Z,1008.81
2019-04-11T03:26:10.311Z,1008.77
2019-04-11T03:28:02.834Z,1008.73
2019-04-11T03:29:04.078Z,1008.75
2019-04-11T03:31:26.634Z,1008.71
2019-04-11T03:32:37.059Z,1008.74
2019-04-11T03:38:03.793Z,1008.68
2019-04-11T03:39:56.952Z,1008.60
2019-04-11T03:40:55.273Z,1008.63
2019-04-11T03:42:38.127Z,1008.59
2019-04-11T03:43:39.500Z,1008.61
2019-04-11T03:45:38.427Z,1008.63
2019-04-11T03:46:38.099Z,1008.60
2019-04-11T03:48:29.247Z,1008.59
2019-04-11T03:49:25.008Z,1008.59
2019-04-11T03:51:06.092Z,1008.56
2019-04-11T03:52:08.204Z,1008.55
2019-04-11T03:53:59.273Z,1008.48
2019-04-11T03:55:00.456Z,1008.53
2019-04-11T03:56:53.457Z,1008.50
2019-04-11T03:57:54.293Z,1008.47
2019-04-11T03:59:45.806Z,1008.48
2019-04-11T04:00:46.510Z,1008.42
2019-04-11T04:02:39.110Z,1008.36
2019-04-11T04:03:39.246Z,1008.36
2019-04-11T04:05:36.172Z,1008.29
2019-04-11T04:06:31.114Z,1008.27
2019-04-11T04:08:24.726Z,1008.23
2019-04-11T04:09:24.590Z,1008.24
2019-04-11T04:11:18.490Z,1008.23
2019-04-11T04:12:16.725Z,1008.21
2019-04-11T04:14:10.502Z,1008.21
2019-04-11T04:15:13.042Z,1008.22
2019-04-11T04:17:04.188Z,1008.15
2019-04-11T04:18:03.606Z,1008.14
2019-04-11T04:19:56.604Z,1008.12
2019-04-11T04:20:55.512Z,1008.10
2019-04-11T04:22:49.945Z,1008.01
2019-04-11T04:23:49.689Z,1007.99
2019-04-11T04:25:44.954Z,1007.98
2019-04-11T04:26:43.045Z,1007.96
2019-04-11T04:28:35.690Z,1007.93
2019-04-11T04:29:36.965Z,1007.89
2019-04-11T04:31:28.654Z,1007.87
2019-04-11T04:32:28.007Z,1007.85
2019-04-11T04:34:21.769Z,1007.84
2019-04-11T04:35:22.144Z,1007.83
2019-04-11T04:37:14.064Z,1007.80
2019-04-11T04:38:13.627Z,1007.76
2019-04-11T04:40:25.469Z,1007.68
2019-04-11T04:41:18.888Z,1007.67
2019-04-11T04:43:02.943Z,1007.67
2019-04-11T04:44:01.655Z,1007.64
2019-04-11T04:46:08.435Z,1007.61
2019-04-11T04:47:09.196Z,1007.65
2019-04-11T04:48:47.739Z,1007.64
2019-04-11T04:49:48.210Z,1007.61
2019-04-11T04:51:41.443Z,1007.58
2019-04-11T04:52:40.860Z,1007.56
2019-04-11T04:54:33.423Z,1007.50
2019-04-11T04:55:32.729Z,1007.46
2019-04-11T04:57:26.773Z,1007.45
2019-04-11T04:58:26.434Z,1007.43
2019-04-11T05:00:18.843Z,1007.42
2019-04-11T05:01:19.372Z,1007.39
2019-04-11T05:03:11.385Z,1007.38
2019-04-11T05:04:13.218Z,1007.38
2019-04-11T05:06:04.760Z,1007.38
2019-04-11T05:07:05.276Z,1007.36
2019-04-11T05:08:58.071Z,1007.33
2019-04-11T05:09:58.574Z,1007.30
2019-04-11T05:11:50.822Z,1007.27
2019-04-11T05:12:51.375Z,1007.21
2019-04-11T05:14:43.451Z,1007.21
2019-04-11T05:15:43.686Z,1007.19
2019-04-11T05:17:36.373Z,1007.18
2019-04-11T05:18:36.433Z,1007.18
2019-04-11T05:20:30.186Z,1007.18
2019-04-11T05:21:29.942Z,1007.13
2019-04-11T05:23:23.508Z,1007.11
2019-04-11T05:24:22.986Z,1007.06
2019-04-11T05:26:15.803Z,1007.05
2019-04-11T05:27:15.817Z,1007.04
2019-04-11T05:29:09.084Z,1007.01
2019-04-11T05:30:09.362Z,1006.98
2019-04-11T05:32:01.702Z,1006.97
2019-04-11T05:33:01.887Z,1006.95
2019-04-11T05:34:54.638Z,1006.93
2019-04-11T05:35:54.654Z,1006.92
2019-04-11T05:37:48.133Z,1006.96
2019-04-11T05:38:48.651Z,1006.86
2019-04-11T05:40:40.585Z,1006.90
2019-04-11T05:41:44.772Z,1006.88
2019-04-11T05:43:37.290Z,1006.82
2019-04-11T05:44:37.369Z,1006.85
2019-04-11T05:46:36.136Z,1006.80
2019-04-11T05:47:27.548Z,1006.77
2019-04-11T05:49:21.644Z,1006.76
2019-04-11T05:50:20.110Z,1006.70
2019-04-11T05:52:12.378Z,1006.65
2019-04-11T05:53:12.303Z,1006.66
2019-04-11T05:55:08.257Z,1006.62
2019-04-11T05:56:05.239Z,1006.64
2019-04-11T05:57:58.655Z,1006.60
2019-04-11T05:58:58.184Z,1006.61
2019-04-11T06:00:51.100Z,1006.54
2019-04-11T06:01:51.121Z,1006.53
2019-04-11T06:03:45.502Z,1006.47
2019-04-11T06:04:46.894Z,1006.48
2019-04-11T06:06:40.220Z,1006.43
2019-04-11T06:07:40.034Z,1006.43
2019-04-11T06:09:32.965Z,1006.41
2019-04-11T06:10:30.313Z,1006.38
2019-04-11T06:12:22.869Z,1006.42
2019-04-11T06:13:22.891Z,1006.40
2019-04-11T06:15:15.811Z,1006.36
2019-04-11T06:16:16.727Z,1006.34
2019-04-11T06:18:08.756Z,1006.35
2019-04-11T06:19:08.774Z,1006.31
2019-04-11T06:21:01.951Z,1006.31
2019-04-11T06:22:01.724Z,1006.27
2019-04-11T06:23:55.722Z,1006.23
2019-04-11T06:24:54.659Z,1006.22
2019-04-11T06:26:47.583Z,1006.19
2019-04-11T06:27:47.605Z,1006.12
2019-04-11T06:29:41.040Z,1006.13
2019-04-11T06:30:40.541Z,1006.11
2019-04-11T06:32:34.122Z,1006.16
2019-04-11T06:33:34.514Z,1006.14
2019-04-11T06:35:28.190Z,1006.17
2019-04-11T06:36:26.745Z,1006.15
2019-04-11T06:38:20.353Z,1006.14
2019-04-11T06:39:19.365Z,1006.18
2019-04-11T06:41:12.528Z,1006.14
2019-04-11T06:42:12.911Z,1006.11
2019-04-11T06:44:05.231Z,1006.05
2019-04-11T06:45:06.432Z,1006.08
2019-04-11T06:47:00.650Z,1006.05
2019-04-11T06:47:59.028Z,1006.05
2019-04-11T06:49:51.111Z,1006.00
2019-04-11T06:50:51.337Z,1006.02
2019-04-11T06:52:45.142Z,1005.97
2019-04-11T06:53:44.186Z,1005.95
2019-04-11T06:55:37.101Z,1005.95
2019-04-11T06:56:37.007Z,1005.95
2019-04-11T06:58:29.935Z,1005.89
2019-04-11T06:59:30.201Z,1005.90
2019-04-11T07:01:22.873Z,1005.90
2019-04-11T07:02:24.625Z,1005.85
2019-04-11T07:04:15.817Z,1005.81
2019-04-11T07:05:16.132Z,1005.83
2019-04-11T07:07:09.897Z,1005.79
2019-04-11T07:08:09.615Z,1005.80
2019-04-11T07:10:02.120Z,1005.72
2019-04-11T07:11:02.867Z,1005.73
2019-04-11T07:12:55.973Z,1005.69
2019-04-11T07:13:55.490Z,1005.67
2019-04-11T07:15:48.457Z,1005.64
2019-04-11T07:16:59.282Z,1005.60
2019-04-11T07:18:40.537Z,1005.60
2019-04-11T07:19:41.530Z,1005.58
2019-04-11T07:21:33.479Z,1005.55
2019-04-11T07:22:34.559Z,1005.50
2019-04-11T07:24:26.421Z,1005.46
2019-04-11T07:25:26.849Z,1005.44
2019-04-11T07:27:20.177Z,1005.40
2019-04-11T07:28:19.381Z,1005.37
2019-04-11T07:30:13.307Z,1005.33
2019-04-11T07:31:12.817Z,1005.33
2019-04-11T07:33:06.014Z,1005.28
2019-04-11T07:34:06.213Z,1005.35
2019-04-11T07:35:59.777Z,1005.29
2019-04-11T07:36:58.209Z,1005.31
2019-04-11T07:38:52.306Z,1005.25
2019-04-11T07:39:51.611Z,1005.23
2019-04-11T07:41:45.654Z,1005.21
2019-04-11T07:42:44.114Z,1005.21
2019-04-11T07:44:37.033Z,1005.18
2019-04-11T07:45:38.532Z,1005.22
2019-04-11T07:47:29.968Z,1005.19
2019-04-11T07:48:29.985Z,1005.16
2019-04-11T07:50:23.157Z,1005.20
2019-04-11T07:51:23.321Z,1005.21
2019-04-11T07:53:15.858Z,1005.20
2019-04-11T07:54:15.893Z,1005.19
2019-04-11T07:56:09.784Z,1005.18
2019-04-11T07:57:08.810Z,1005.23
2019-04-11T07:59:02.916Z,1005.20
2019-04-11T08:00:01.765Z,1005.22
2019-04-11T08:01:54.972Z,1005.19
2019-04-11T08:02:55.243Z,1005.20
2019-04-11T08:04:47.621Z,1005.18
2019-04-11T08:05:47.634Z,1005.18
2019-04-11T08:07:42.528Z,1005.12
2019-04-11T08:08:41.572Z,1005.11
2019-04-11T08:10:35.143Z,1005.04
2019-04-11T08:11:34.513Z,1005.00
2019-04-11T08:13:28.311Z,1005.02
2019-04-11T08:14:28.560Z,1005.00
2019-04-11T08:16:20.451Z,1005.02
2019-04-11T08:17:27.988Z,1005.01
2019-04-11T08:19:13.316Z,1005.00
2019-04-11T08:20:13.333Z,1004.98
2019-04-11T08:22:06.412Z,1004.96
2019-04-11T08:23:07.497Z,1004.92
2019-04-11T08:24:59.209Z,1004.90
2019-04-11T08:25:59.934Z,1004.91
2019-04-11T08:28:00.284Z,1004.93
2019-04-11T08:29:01.362Z,1004.89
2019-04-11T08:30:45.097Z,1004.83
2019-04-11T08:31:45.106Z,1004.82
2019-04-11T08:33:38.428Z,1004.83
2019-04-11T08:34:38.043Z,1004.80
2019-04-11T08:36:31.718Z,1004.83
2019-04-11T08:37:31.654Z,1004.84
2019-04-11T08:39:24.827Z,1004.80
2019-04-11T08:40:23.984Z,1004.79
2019-04-11T08:42:17.017Z,1004.78
2019-04-11T08:43:17.178Z,1004.76
2019-04-11T08:45:09.793Z,1004.72
2019-04-11T08:46:10.945Z,1004.72
2019-04-11T08:48:02.741Z,1004.73
2019-04-11T08:49:03.636Z,1004.73
2019-04-11T08:50:55.674Z,1004.71
2019-04-11T08:51:55.798Z,1004.71
2019-04-11T08:53:49.014Z,1004.75
2019-04-11T08:54:48.632Z,1004.74
2019-04-11T08:56:41.561Z,1004.76
2019-04-11T08:57:42.646Z,1004.71
2019-04-11T08:59:35.629Z,1004.69
2019-04-11T09:00:34.691Z,1004.67
2019-04-11T09:02:27.443Z,1004.74
2019-04-11T09:03:27.463Z,1004.76
2019-04-11T09:05:20.740Z,1004.84
2019-04-11T09:06:20.803Z,1004.85
2019-04-11T09:08:14.224Z,1004.88
2019-04-11T09:09:13.362Z,1004.89
2019-04-11T09:11:06.577Z,1004.89
2019-04-11T09:12:06.564Z,1004.90
2019-04-11T09:13:59.809Z,1004.91
2019-04-11T09:15:00.259Z,1004.92
2019-04-11T09:16:52.201Z,1004.89
2019-04-11T09:17:58.858Z,1004.91
2019-04-11T09:19:45.470Z,1004.93
2019-04-11T09:20:45.615Z,1004.93
2019-04-11T09:22:38.026Z,1004.92
2019-04-11T09:23:38.045Z,1004.94
2019-04-11T09:25:31.834Z,1004.93
2019-04-11T09:26:31.967Z,1004.88
2019-04-11T09:28:24.937Z,1004.91
2019-04-11T09:29:24.134Z,1004.88
2019-04-11T09:31:17.074Z,1004.84
2019-04-11T09:32:17.933Z,1004.84
2019-04-11T09:34:09.801Z,1004.83
2019-04-11T09:35:10.246Z,1004.85
2019-04-11T09:37:03.165Z,1004.87
2019-04-11T09:38:02.757Z,1004.88
2019-04-11T09:39:55.673Z,1004.89
2019-04-11T09:40:57.024Z,1004.91
2019-04-11T09:42:48.622Z,1004.93
2019-04-11T09:43:48.635Z,1004.91
2019-04-11T09:45:41.750Z,1004.94
2019-04-11T09:46:42.780Z,1004.98
2019-04-11T09:48:35.045Z,1004.99
2019-04-11T09:49:36.062Z,1004.98
2019-04-11T09:51:29.463Z,1005.01
2019-04-11T09:52:27.459Z,1004.98
2019-04-11T09:53:28.279Z,1004.99
2019-04-11T09:54:28.265Z,1004.98
2019-04-11T09:55:27.520Z,1005.03
2019-04-11T09:56:27.566Z,1005.03
2019-04-11T09:57:28.848Z,1004.98
2019-04-11T09:58:27.603Z,1005.02
2019-04-11T09:59:27.615Z,1005.01
2019-04-11T10:00:28.896Z,1004.97
2019-04-11T10:01:28.730Z,1004.96
2019-04-11T10:02:27.676Z,1004.96
2019-04-11T10:03:27.949Z,1004.98
2019-04-11T10:04:27.746Z,1004.95
2019-04-11T10:05:27.747Z,1004.95
2019-04-11T10:06:28.085Z,1004.95
2019-04-11T10:07:28.197Z,1004.95
2019-04-11T10:08:27.810Z,1004.95
2019-04-11T10:09:28.223Z,1004.94
2019-04-11T10:10:28.915Z,1004.97
2019-04-11T10:11:28.230Z,1004.99
2019-04-11T10:12:27.902Z,1004.99
2019-04-11T10:13:28.895Z,1005.01
2019-04-11T10:14:29.298Z,1004.97
2019-04-11T10:15:29.655Z,1004.97
2019-04-11T10:16:28.412Z,1005.00
2019-04-11T10:17:28.014Z,1004.99
2019-04-11T10:18:33.717Z,1005.00
2019-04-11T10:19:28.055Z,1005.06
2019-04-11T10:20:28.821Z,1005.08
2019-04-11T10:21:28.996Z,1005.07
2019-04-11T10:22:29.176Z,1005.09
2019-04-11T10:23:29.206Z,1005.07
2019-04-11T10:24:28.235Z,1005.07
2019-04-11T10:25:28.822Z,1005.05
2019-04-11T10:26:28.209Z,1005.08
2019-04-11T10:27:28.807Z,1005.07
2019-04-11T10:28:29.337Z,1005.09
2019-04-11T10:29:30.404Z,1005.10
2019-04-11T10:30:29.281Z,1005.19
2019-04-11T10:31:28.457Z,1005.20
2019-04-11T10:32:28.340Z,1005.20
2019-04-11T10:33:28.883Z,1005.24
2019-04-11T10:34:28.401Z,1005.21
2019-04-11T10:35:28.424Z,1005.21
2019-04-11T10:36:29.481Z,1005.27
2019-04-11T10:37:28.634Z,1005.30
2019-04-11T10:38:28.727Z,1005.33
2019-04-11T10:39:29.171Z,1005.38
2019-04-11T10:40:28.538Z,1005.43
2019-04-11T10:41:28.613Z,1005.50
2019-04-11T10:42:28.743Z,1005.55
2019-04-11T10:43:28.702Z,1005.53
2019-04-11T10:44:29.744Z,1005.51
2019-04-11T10:45:28.874Z,1005.50
2019-04-11T10:46:28.682Z,1005.54
2019-04-11T10:47:29.191Z,1005.56
2019-04-11T10:48:37.738Z,1005.57
2019-04-11T10:49:28.754Z,1005.59
2019-04-11T10:50:28.731Z,1005.61
2019-04-11T10:51:29.561Z,1005.64
2019-04-11T10:52:28.850Z,1005.67
2019-04-11T10:53:29.050Z,1005.70
2019-04-11T10:54:29.746Z,1005.69
2019-04-11T10:55:29.391Z,1005.72
2019-04-11T10:56:28.863Z,1005.71
2019-04-11T10:57:29.867Z,1005.79
2019-04-11T10:58:28.917Z,1005.78
2019-04-11T10:59:30.236Z,1005.76
2019-04-11T11:00:29.414Z,1005.78
2019-04-11T11:01:28.976Z,1005.81
2019-04-11T11:02:29.369Z,1005.83
2019-04-11T11:03:29.136Z,1005.86
2019-04-11T11:04:29.035Z,1005.93
2019-04-11T11:05:29.066Z,1005.95
2019-04-11T11:06:29.586Z,1005.95
2019-04-11T11:07:29.102Z,1005.95
2019-04-11T11:08:29.187Z,1005.97
2019-04-11T11:09:30.213Z,1005.96
2019-04-11T11:10:29.167Z,1006.00
2019-04-11T11:11:30.377Z,1006.02
2019-04-11T11:12:29.651Z,1006.00
2019-04-11T11:13:29.900Z,1006.00
2019-04-11T11:14:29.254Z,1005.99
2019-04-11T11:15:29.446Z,1005.96
2019-04-11T11:16:30.915Z,1005.92
2019-04-11T11:17:47.101Z,1005.91
2019-04-11T11:18:48.115Z,1005.87
2019-04-11T11:19:45.616Z,1005.83
2019-04-11T11:20:36.315Z,1005.80
2019-04-11T11:21:32.134Z,1005.84
2019-04-11T11:22:32.270Z,1005.86
2019-04-11T11:23:29.452Z,1005.90
2019-04-11T11:24:29.471Z,1005.88
2019-04-11T11:25:29.525Z,1005.96
2019-04-11T11:26:29.523Z,1005.96
2019-04-11T11:27:30.398Z,1005.95
2019-04-11T11:28:30.145Z,1006.02
2019-04-11T11:29:29.587Z,1005.94
2019-04-11T11:30:29.627Z,1005.97
2019-04-11T11:31:29.970Z,1005.99
2019-04-11T11:32:29.642Z,1006.01
2019-04-11T11:33:30.088Z,1006.00
2019-04-11T11:34:30.529Z,1006.03
2019-04-11T11:35:33.695Z,1006.01
2019-04-11T11:36:34.819Z,1006.00
2019-04-11T11:37:29.752Z,1005.98
2019-04-11T11:38:30.242Z,1005.99
2019-04-11T11:39:31.007Z,1006.01
2019-04-11T11:40:30.034Z,1006.01
2019-04-11T11:41:30.267Z,1005.99
2019-04-11T11:42:30.386Z,1006.02
2019-04-11T11:43:30.979Z,1006.03
2019-04-11T11:44:30.830Z,1006.05
2019-04-11T11:45:29.930Z,1006.06
2019-04-11T11:46:31.610Z,1006.08
2019-04-11T11:47:33.135Z,1006.12
2019-04-11T11:48:31.166Z,1006.17
2019-04-11T11:49:43.787Z,1006.19
2019-04-11T11:50:32.894Z,1006.24
2019-04-11T11:51:31.199Z,1006.25
2019-04-11T11:52:33.333Z,1006.27
2019-04-11T11:53:31.296Z,1006.32
2019-04-11T11:54:31.313Z,1006.35
2019-04-11T11:55:31.415Z,1006.35
2019-04-11T11:56:30.164Z,1006.37
2019-04-11T11:57:30.864Z,1006.39
2019-04-11T11:58:30.203Z,1006.38
2019-04-11T11:59:30.679Z,1006.42
2019-04-11T12:00:31.671Z,1006.45
2019-04-11T12:01:31.533Z,1006.49
2019-04-11T12:02:30.591Z,1006.50
2019-04-11T12:03:31.166Z,1006.48
2019-04-11T12:04:35.325Z,1006.51
2019-04-11T12:05:30.352Z,1006.51
2019-04-11T12:06:31.260Z,1006.51
2019-04-11T12:07:33.738Z,1006.57
2019-04-11T12:08:30.785Z,1006.58
2019-04-11T12:09:30.837Z,1006.60
2019-04-11T12:10:32.463Z,1006.65
2019-04-11T12:11:30.483Z,1006.67
2019-04-11T12:12:31.490Z,1006.69
2019-04-11T12:13:30.526Z,1006.74
2019-04-11T12:14:30.552Z,1006.70
2019-04-11T12:15:30.569Z,1006.71
2019-04-11T12:16:30.587Z,1006.72
2019-04-11T12:17:32.491Z,1006.77
2019-04-11T12:18:30.765Z,1006.80
2019-04-11T12:19:42.672Z,1006.78
2019-04-11T12:20:31.189Z,1006.81
2019-04-11T12:21:31.422Z,1006.83
2019-04-11T12:22:30.792Z,1006.81
2019-04-11T12:23:41.969Z,1006.87
2019-04-11T12:24:30.763Z,1006.87
2019-04-11T12:25:31.413Z,1006.96
2019-04-11T12:26:33.384Z,1006.97
2019-04-11T12:27:31.155Z,1007.03
2019-04-11T12:28:30.840Z,1007.05
2019-04-11T12:29:30.918Z,1007.10
2019-04-11T12:30:32.833Z,1007.13
2019-04-11T12:31:32.195Z,1007.10
2019-04-11T12:32:30.928Z,1007.16
2019-04-11T12:33:30.947Z,1007.12
2019-04-11T12:34:30.967Z,1007.10
2019-04-11T12:35:30.990Z,1007.13
2019-04-11T12:36:31.024Z,1007.13
2019-04-11T12:37:31.699Z,1007.13
2019-04-11T12:38:31.144Z,1007.17
2019-04-11T12:39:31.107Z,1007.18
2019-04-11T12:40:31.098Z,1007.14
2019-04-11T12:41:31.125Z,1007.14
2019-04-11T12:42:31.228Z,1007.16
2019-04-11T12:43:31.165Z,1007.16
2019-04-11T12:44:31.194Z,1007.19
2019-04-11T12:45:31.197Z,1007.16
2019-04-11T12:46:31.217Z,1007.17
2019-04-11T12:47:31.255Z,1007.20
2019-04-11T12:48:31.262Z,1007.17
2019-04-11T12:49:31.282Z,1007.20
2019-04-11T12:50:31.363Z,1007.20
2019-04-11T12:51:31.324Z,1007.17
2019-04-11T12:52:31.343Z,1007.17
2019-04-11T12:53:31.368Z,1007.15
2019-04-11T12:54:31.389Z,1007.18
2019-04-11T12:55:31.410Z,1007.19
2019-04-11T12:56:31.429Z,1007.19
2019-04-11T12:57:31.450Z,1007.19
2019-04-11T12:58:31.473Z,1007.19
2019-04-11T12:59:31.496Z,1007.18
2019-04-11T13:00:31.515Z,1007.20
2019-04-11T13:01:31.535Z,1007.20
2019-04-11T13:02:31.554Z,1007.18
2019-04-11T13:03:31.575Z,1007.21
2019-04-11T13:04:31.596Z,1007.25
2019-04-11T13:05:31.619Z,1007.28
2019-04-11T13:06:35.556Z,1007.33
2019-04-11T13:07:31.664Z,1007.34
2019-04-11T13:08:31.688Z,1007.39
2019-04-11T13:09:31.701Z,1007.43
2019-04-11T13:10:31.728Z,1007.41
2019-04-11T13:11:31.870Z,1007.45
2019-04-11T13:12:31.769Z,1007.47
2019-04-11T13:13:31.789Z,1007.47
2019-04-11T13:14:31.816Z,1007.51
2019-04-11T13:15:31.831Z,1007.50
2019-04-11T13:16:31.851Z,1007.49
2019-04-11T13:17:31.869Z,1007.57
2019-04-11T13:18:32.010Z,1007.58
2019-04-11T13:19:31.926Z,1007.58
2019-04-11T13:20:31.940Z,1007.62
2019-04-11T13:21:31.954Z,1007.64
2019-04-11T13:22:31.981Z,1007.63
2019-04-11T13:23:31.995Z,1007.64
2019-04-11T13:24:32.023Z,1007.69
2019-04-11T13:25:32.125Z,1007.72
2019-04-11T13:26:32.058Z,1007.69
2019-04-11T13:27:32.076Z,1007.76
2019-04-11T13:28:32.099Z,1007.76
2019-04-11T13:29:32.177Z,1007.80
2019-04-11T13:30:32.147Z,1007.77
2019-04-11T13:31:32.186Z,1007.81
2019-04-11T13:32:32.186Z,1007.84
2019-04-11T13:33:32.203Z,1007.84
2019-04-11T13:34:32.222Z,1007.82
2019-04-11T13:35:32.251Z,1007.79
2019-04-11T13:36:32.267Z,1007.81
2019-04-11T13:37:32.291Z,1007.80
2019-04-11T13:38:32.344Z,1007.82
2019-04-11T13:39:32.568Z,1007.84
2019-04-11T13:40:32.392Z,1007.86
2019-04-11T13:41:32.372Z,1007.85
2019-04-11T13:42:32.394Z,1007.86
2019-04-11T13:43:32.413Z,1007.83
2019-04-11T13:44:32.433Z,1007.84
2019-04-11T13:45:32.461Z,1007.83
2019-04-11T13:46:32.473Z,1007.87
2019-04-11T13:47:32.523Z,1007.87
2019-04-11T13:48:32.516Z,1007.90
2019-04-11T13:49:32.545Z,1007.92
2019-04-11T13:50:32.561Z,1007.94
2019-04-11T13:51:32.582Z,1007.95
2019-04-11T13:52:32.601Z,1007.92
2019-04-11T13:53:32.643Z,1007.93
2019-04-11T13:54:32.641Z,1007.93
2019-04-11T13:55:32.681Z,1007.93
2019-04-11T13:56:32.681Z,1007.93
2019-04-11T13:57:32.704Z,1007.93
2019-04-11T13:58:32.725Z,1007.98
2019-04-11T13:59:32.746Z,1007.99
2019-04-11T14:00:32.768Z,1007.95
2019-04-11T14:01:32.794Z,1007.95
2019-04-11T14:02:32.809Z,1007.98
2019-04-11T14:03:32.830Z,1008.02
2019-04-11T14:04:32.852Z,1008.05
2019-04-11T14:05:32.871Z,1008.15
2019-04-11T14:06:32.896Z,1008.20
2019-04-11T14:07:32.911Z,1008.21
2019-04-11T14:08:32.934Z,1008.27
2019-04-11T14:09:32.954Z,1008.27
2019-04-11T14:10:32.973Z,1008.25
2019-04-11T14:11:33.774Z,1008.26
2019-04-11T14:12:34.030Z,1008.31
2019-04-11T14:13:34.585Z,1008.28
2019-04-11T14:14:35.709Z,1008.26
2019-04-11T14:15:36.428Z,1008.27
2019-04-11T14:16:33.102Z,1008.30
2019-04-11T14:17:33.122Z,1008.33
2019-04-11T14:18:33.142Z,1008.34
2019-04-11T14:19:33.161Z,1008.36
2019-04-11T14:20:33.182Z,1008.41
2019-04-11T14:21:33.205Z,1008.45
2019-04-11T14:22:33.226Z,1008.43
2019-04-11T14:23:33.247Z,1008.42
2019-04-11T14:24:33.267Z,1008.43
2019-04-11T14:25:33.289Z,1008.42
2019-04-11T14:26:33.307Z,1008.44
2019-04-11T14:27:33.327Z,1008.45
2019-04-11T14:28:33.352Z,1008.43
2019-04-11T14:29:33.369Z,1008.39
2019-04-11T14:30:33.391Z,1008.48
2019-04-11T14:31:33.412Z,1008.42
2019-04-11T14:32:33.433Z,1008.46
2019-04-11T14:33:33.457Z,1008.56
2019-04-11T14:34:33.473Z,1008.55
2019-04-11T14:35:33.494Z,1008.53
2019-04-11T14:36:34.005Z,1008.54
2019-04-11T14:37:38.526Z,1008.54
2019-04-11T14:38:33.558Z,1008.53
2019-04-11T14:39:33.576Z,1008.45
2019-04-11T14:40:33.601Z,1008.47
2019-04-11T14:41:33.621Z,1008.49
2019-04-11T14:42:33.647Z,1008.46
2019-04-11T14:43:33.659Z,1008.42
2019-04-11T14:44:33.681Z,1008.46
2019-04-11T14:45:36.538Z,1008.45
2019-04-11T14:46:36.506Z,1008.38
2019-04-11T14:47:34.784Z,1008.45
2019-04-11T14:48:33.764Z,1008.41
2019-04-11T14:49:33.785Z,1008.39
2019-04-11T14:50:40.563Z,1008.40
2019-04-11T14:51:33.827Z,1008.37
2019-04-11T14:52:33.847Z,1008.39
2019-04-11T14:53:33.869Z,1008.40
2019-04-11T14:54:33.891Z,1008.41
2019-04-11T14:55:33.912Z,1008.40
2019-04-11T14:56:33.929Z,1008.44
2019-04-11T14:57:33.950Z,1008.43
2019-04-11T14:58:33.971Z,1008.46
2019-04-11T14:59:33.993Z,1008.44
2019-04-11T15:00:34.018Z,1008.46
2019-04-11T15:01:34.034Z,1008.50
2019-04-11T15:02:34.053Z,1008.49
2019-04-11T15:03:34.075Z,1008.47
2019-04-11T15:04:34.097Z,1008.48
2019-04-11T15:05:34.115Z,1008.49
2019-04-11T15:06:34.137Z,1008.51
2019-04-11T15:07:34.156Z,1008.55
2019-04-11T15:08:34.186Z,1008.54
2019-04-11T15:09:34.198Z,1008.56
2019-04-11T15:10:34.292Z,1008.54
2019-04-11T15:11:34.239Z,1008.60
2019-04-11T15:12:34.263Z,1008.55
2019-04-11T15:13:34.281Z,1008.55
2019-04-11T15:14:34.305Z,1008.53
2019-04-11T15:15:34.326Z,1008.51
2019-04-11T15:16:34.343Z,1008.48
2019-04-11T15:17:34.365Z,1008.48
2019-04-11T15:18:34.384Z,1008.48
2019-04-11T15:19:34.404Z,1008.49
2019-04-11T15:20:34.800Z,1008.56
2019-04-11T15:21:36.315Z,1008.55
2019-04-11T15:22:35.690Z,1008.50
2019-04-11T15:23:37.527Z,1008.42
2019-04-11T15:24:37.439Z,1008.38
2019-04-11T15:25:35.723Z,1008.37
2019-04-11T15:26:36.633Z,1008.35
2019-04-11T15:27:38.402Z,1008.32
2019-04-11T15:28:34.589Z,1008.28
2019-04-11T15:29:34.614Z,1008.27
2019-04-11T15:30:34.634Z,1008.27
2019-04-11T15:31:39.422Z,1008.31
2019-04-11T15:32:34.672Z,1008.32
2019-04-11T15:33:34.696Z,1008.34
2019-04-11T15:34:34.713Z,1008.33
2019-04-11T15:35:34.736Z,1008.34
2019-04-11T15:36:34.757Z,1008.38
2019-04-11T15:37:34.777Z,1008.38
2019-04-11T15:38:34.796Z,1008.46
2019-04-11T15:39:44.118Z,1008.43
2019-04-11T15:40:34.837Z,1008.44
2019-04-11T15:41:34.857Z,1008.47
2019-04-11T15:42:34.878Z,1008.50
2019-04-11T15:43:34.901Z,1008.49
2019-04-11T15:44:34.925Z,1008.51
2019-04-11T15:45:34.954Z,1008.50
2019-04-11T15:46:34.958Z,1008.55
2019-04-11T15:47:34.980Z,1008.47
2019-04-11T15:48:35.003Z,1008.48
2019-04-11T15:49:35.025Z,1008.52
2019-04-11T15:50:35.039Z,1008.56
2019-04-11T15:51:35.201Z,1008.66
2019-04-11T15:52:36.993Z,1008.62
2019-04-11T15:53:36.948Z,1008.67
2019-04-11T15:54:37.170Z,1008.66
2019-04-11T15:55:37.506Z,1008.68
2019-04-11T15:56:36.234Z,1008.69
2019-04-11T15:57:35.186Z,1008.68
2019-04-11T15:58:35.205Z,1008.68
2019-04-11T15:59:35.234Z,1008.71
2019-04-11T16:00:35.246Z,1008.68
2019-04-11T16:01:35.269Z,1008.70
2019-04-11T16:02:35.288Z,1008.71
2019-04-11T16:03:35.309Z,1008.75
2019-04-11T16:04:35.329Z,1008.70
2019-04-11T16:05:35.351Z,1008.70
2019-04-11T16:06:38.811Z,1008.70
2019-04-11T16:07:37.409Z,1008.73
2019-04-11T16:08:38.797Z,1008.73
2019-04-11T16:09:35.433Z,1008.77
2019-04-11T16:10:36.425Z,1008.75
2019-04-11T16:11:35.471Z,1008.75
2019-04-11T16:12:35.492Z,1008.75
2019-04-11T16:13:35.517Z,1008.75
2019-04-11T16:14:35.579Z,1008.74
2019-04-11T16:15:35.552Z,1008.71
2019-04-11T16:16:35.573Z,1008.72
2019-04-11T16:17:35.595Z,1008.68
2019-04-11T16:18:35.614Z,1008.68
2019-04-11T16:19:35.645Z,1008.70
2019-04-11T16:20:35.656Z,1008.66
2019-04-11T16:21:35.675Z,1008.63
2019-04-11T16:22:35.694Z,1008.69
2019-04-11T16:23:35.719Z,1008.66
2019-04-11T16:24:35.739Z,1008.66
2019-04-11T16:25:35.761Z,1008.69
2019-04-11T16:26:35.792Z,1008.66
2019-04-11T16:27:36.669Z,1008.65
2019-04-11T16:28:38.163Z,1008.65
2019-04-11T16:29:38.784Z,1008.63
2019-04-11T16:30:39.545Z,1008.65
2019-04-11T16:31:37.833Z,1008.68
2019-04-11T16:32:35.904Z,1008.66
2019-04-11T16:33:35.922Z,1008.64